createdAt,value
2023-04-22T00:00:45.775Z,3.03
2023-04-22T00:02:08.407Z,3.67
2023-04-22T00:03:31.370Z,3.10
2023-04-22T00:04:54.109Z,2.97
2023-04-22T00:06:19.134Z,2.97
2023-04-22T00:07:43.008Z,2.80
2023-04-22T00:09:05.158Z,2.93
2023-04-22T00:10:27.662Z,3.07
2023-04-22T00:11:49.790Z,3.40
2023-04-22T00:13:12.033Z,3.50
2023-04-22T00:14:35.548Z,3.20
2023-04-22T00:15:58.067Z,3.37
2023-04-22T00:17:20.407Z,3.07
2023-04-22T00:18:43.036Z,3.13
2023-04-22T00:20:06.094Z,3.00
2023-04-22T00:21:28.540Z,3.97
2023-04-22T00:22:50.777Z,2.87
2023-04-22T00:24:12.960Z,3.07
2023-04-22T00:25:35.140Z,3.27
2023-04-22T00:26:57.423Z,2.80
2023-04-22T00:28:19.634Z,3.27
2023-04-22T00:29:41.806Z,3.53
2023-04-22T00:31:04.761Z,3.70
2023-04-22T00:32:27.160Z,3.40
2023-04-22T00:33:49.583Z,3.43
2023-04-22T00:35:11.679Z,3.10
2023-04-22T00:36:33.813Z,3.20
2023-04-22T00:37:56.581Z,3.20
2023-04-22T00:39:18.756Z,3.47
2023-04-22T00:40:41.021Z,3.40
2023-04-22T00:42:03.555Z,3.30
2023-04-22T00:43:25.895Z,3.43
2023-04-22T00:44:48.539Z,3.10
2023-04-22T00:46:10.697Z,3.70
2023-04-22T00:47:33.363Z,3.20
2023-04-22T00:48:56.333Z,3.30
2023-04-22T00:50:18.682Z,3.40
2023-04-22T00:51:40.826Z,3.50
2023-04-22T00:53:03.006Z,3.40
2023-04-22T00:54:25.306Z,3.30
2023-04-22T00:55:47.865Z,3.60
2023-04-22T00:57:10.143Z,4.07
2023-04-22T00:58:33.390Z,3.73
2023-04-22T00:59:55.732Z,3.77
2023-04-22T01:01:18.762Z,3.57
2023-04-22T01:02:41.148Z,3.13
2023-04-22T01:04:04.790Z,3.30
2023-04-22T01:05:29.639Z,3.67
2023-04-22T01:06:53.515Z,3.40
2023-04-22T01:08:16.151Z,3.57
2023-04-22T01:09:40.089Z,3.03
2023-04-22T01:11:03.033Z,3.50
2023-04-22T01:12:25.294Z,3.43
2023-04-22T01:13:47.511Z,3.20
2023-04-22T01:15:10.069Z,3.20
2023-04-22T01:16:35.860Z,3.43
2023-04-22T01:17:59.079Z,3.37
2023-04-22T01:19:21.209Z,3.17
2023-04-22T01:20:43.340Z,3.97
2023-04-22T01:22:07.634Z,3.50
2023-04-22T01:23:30.219Z,3.83
2023-04-22T01:24:52.275Z,3.60
2023-04-22T01:26:14.476Z,3.10
2023-04-22T01:27:36.788Z,3.30
2023-04-22T01:29:01.159Z,3.73
2023-04-22T01:30:23.271Z,4.03
2023-04-22T01:31:46.249Z,4.40
2023-04-22T01:33:09.868Z,4.20
2023-04-22T01:34:32.307Z,3.40
2023-04-22T01:35:54.504Z,3.47
2023-04-22T01:37:17.732Z,3.80
2023-04-22T01:38:40.478Z,3.23
2023-04-22T01:40:04.496Z,3.60
2023-04-22T01:41:26.772Z,3.50
2023-04-22T01:42:49.294Z,3.43
2023-04-22T01:44:11.373Z,4.40
2023-04-22T01:45:33.683Z,3.30
2023-04-22T01:46:55.946Z,3.90
2023-04-22T01:48:18.071Z,3.30
2023-04-22T01:49:40.371Z,3.70
2023-04-22T01:51:03.280Z,3.40
2023-04-22T01:52:27.210Z,4.07
2023-04-22T01:53:49.771Z,3.90
2023-04-22T01:55:11.799Z,3.63
2023-04-22T01:56:33.973Z,4.00
2023-04-22T01:57:56.037Z,3.80
2023-04-22T01:59:18.378Z,3.37
2023-04-22T02:00:40.469Z,3.30
2023-04-22T02:02:02.576Z,3.80
2023-04-22T02:03:24.803Z,3.83
2023-04-22T02:04:46.918Z,4.03
2023-04-22T02:06:09.072Z,3.50
2023-04-22T02:07:31.151Z,3.63
2023-04-22T02:08:53.387Z,3.90
2023-04-22T02:10:15.455Z,4.00
2023-04-22T02:11:37.485Z,3.80
2023-04-22T02:12:59.561Z,4.13
2023-04-22T02:14:21.618Z,3.87
2023-04-22T02:15:43.707Z,3.90
2023-04-22T02:17:05.790Z,3.70
2023-04-22T02:18:27.837Z,4.60
2023-04-22T02:19:49.995Z,4.40
2023-04-22T02:21:12.206Z,4.73
2023-04-22T02:22:34.634Z,4.47
2023-04-22T02:23:56.781Z,4.60
2023-04-22T02:25:18.912Z,4.90
2023-04-22T02:26:41.545Z,5.10
2023-04-22T02:28:03.733Z,4.30
2023-04-22T02:29:25.786Z,3.97
2023-04-22T02:30:47.870Z,4.57
2023-04-22T02:32:09.987Z,4.93
2023-04-22T02:33:32.068Z,5.50
2023-04-22T02:34:54.143Z,5.63
2023-04-22T02:36:16.295Z,4.90
2023-04-22T02:37:38.864Z,5.50
2023-04-22T02:39:03.537Z,5.10
2023-04-22T02:40:25.666Z,4.67
2023-04-22T02:41:47.684Z,5.00
2023-04-22T02:43:09.772Z,5.70
2023-04-22T02:44:31.795Z,5.40
2023-04-22T02:45:53.838Z,4.87
2023-04-22T02:47:16.516Z,5.33
2023-04-22T02:48:39.144Z,5.10
2023-04-22T02:50:01.204Z,5.20
2023-04-22T02:51:23.537Z,5.50
2023-04-22T02:52:45.564Z,5.40
2023-04-22T02:54:07.667Z,5.43
2023-04-22T02:55:29.775Z,6.10
2023-04-22T02:56:51.864Z,6.03
2023-04-22T02:58:13.914Z,6.13
2023-04-22T02:59:37.239Z,6.30
2023-04-22T03:00:59.854Z,5.40
2023-04-22T03:02:22.055Z,6.50
2023-04-22T03:03:44.413Z,6.87
2023-04-22T03:05:07.008Z,5.90
2023-04-22T03:06:29.083Z,6.37
2023-04-22T03:07:51.136Z,6.13
2023-04-22T03:09:13.187Z,6.70
2023-04-22T03:10:35.518Z,5.80
2023-04-22T03:11:57.621Z,6.03
2023-04-22T03:13:19.675Z,6.40
2023-04-22T03:14:41.764Z,6.40
2023-04-22T03:16:03.850Z,6.80
2023-04-22T03:17:26.103Z,6.00
2023-04-22T03:18:48.301Z,6.20
2023-04-22T03:20:11.613Z,7.30
2023-04-22T03:21:33.662Z,7.10
2023-04-22T03:22:55.785Z,7.10
2023-04-22T03:24:17.824Z,5.90
2023-04-22T03:25:39.910Z,6.67
2023-04-22T03:27:02.250Z,6.33
2023-04-22T03:28:24.348Z,5.90
2023-04-22T03:29:46.430Z,6.00
2023-04-22T03:31:08.519Z,6.70
2023-04-22T03:32:30.607Z,6.20
2023-04-22T03:33:52.714Z,6.13
2023-04-22T03:35:14.759Z,6.40
2023-04-22T03:36:36.808Z,5.97
2023-04-22T03:37:58.828Z,6.33
2023-04-22T03:39:20.937Z,6.70
2023-04-22T03:40:43.582Z,6.17
2023-04-22T03:42:05.721Z,6.20
2023-04-22T03:43:27.832Z,5.77
2023-04-22T03:44:49.928Z,6.83
2023-04-22T03:46:12.089Z,5.60
2023-04-22T03:47:34.216Z,6.83
2023-04-22T03:48:56.342Z,6.07
2023-04-22T03:50:18.370Z,6.43
2023-04-22T03:51:40.505Z,7.00
2023-04-22T03:53:02.607Z,6.53
2023-04-22T03:54:27.445Z,6.23
2023-04-22T03:55:49.481Z,6.37
2023-04-22T03:57:11.628Z,6.53
2023-04-22T03:58:33.784Z,6.30
2023-04-22T03:59:56.103Z,6.20
2023-04-22T04:01:18.208Z,6.17
2023-04-22T04:02:40.533Z,6.37
2023-04-22T04:04:02.916Z,6.50
2023-04-22T04:05:25.355Z,6.03
2023-04-22T04:06:47.502Z,6.17
2023-04-22T04:08:09.565Z,6.07
2023-04-22T04:09:31.653Z,6.53
2023-04-22T04:10:53.759Z,6.87
2023-04-22T04:12:15.875Z,5.93
2023-04-22T04:13:37.994Z,5.53
2023-04-22T04:15:00.168Z,5.80
2023-04-22T04:16:22.366Z,6.63
2023-04-22T04:17:44.837Z,6.07
2023-04-22T04:19:07.017Z,5.10
2023-04-22T04:20:29.309Z,5.40
2023-04-22T04:21:51.442Z,6.10
2023-04-22T04:23:13.483Z,5.63
2023-04-22T04:24:36.668Z,6.30
2023-04-22T04:26:01.116Z,5.73
2023-04-22T04:27:24.053Z,6.27
2023-04-22T04:28:47.188Z,5.60
2023-04-22T04:30:10.120Z,5.17
2023-04-22T04:31:32.280Z,6.10
2023-04-22T04:32:54.464Z,5.30
2023-04-22T04:34:16.599Z,5.70
2023-04-22T04:35:39.154Z,6.40
2023-04-22T04:37:01.343Z,5.20
2023-04-22T04:38:25.001Z,6.70
2023-04-22T04:39:47.150Z,6.10
2023-04-22T04:41:09.687Z,5.13
2023-04-22T04:42:33.472Z,5.70
2023-04-22T04:43:56.307Z,5.40
2023-04-22T04:45:19.154Z,5.23
2023-04-22T04:46:41.371Z,5.97
2023-04-22T04:48:03.839Z,6.50
2023-04-22T04:49:26.523Z,5.50
2023-04-22T04:50:50.272Z,6.07
2023-04-22T04:52:12.318Z,4.90
2023-04-22T04:53:34.593Z,5.37
2023-04-22T04:54:56.699Z,5.70
2023-04-22T04:56:18.717Z,5.43
2023-04-22T04:57:41.148Z,6.23
2023-04-22T04:59:03.199Z,5.70
2023-04-22T05:00:25.257Z,6.10
2023-04-22T05:01:47.385Z,5.67
2023-04-22T05:03:11.649Z,5.97
2023-04-22T05:04:34.182Z,5.60
2023-04-22T05:05:56.890Z,5.40
2023-04-22T05:07:19.141Z,7.20
2023-04-22T05:08:41.222Z,6.37
2023-04-22T05:10:03.710Z,6.50
2023-04-22T05:11:25.803Z,5.70
2023-04-22T05:12:47.918Z,7.23
2023-04-22T05:14:09.953Z,11.23
2023-04-22T05:15:32.137Z,10.97
2023-04-22T05:16:54.388Z,7.03
2023-04-22T05:18:16.504Z,6.93
2023-04-22T05:19:38.854Z,6.70
2023-04-22T05:21:04.059Z,6.80
2023-04-22T05:22:26.156Z,15.67
2023-04-22T05:23:48.593Z,11.90
2023-04-22T05:25:10.949Z,8.80
2023-04-22T05:26:32.980Z,6.50
2023-04-22T05:27:55.026Z,6.93
2023-04-22T05:29:17.140Z,6.03
2023-04-22T05:30:39.188Z,5.83
2023-04-22T05:32:01.359Z,6.03
2023-04-22T05:33:23.482Z,6.27
2023-04-22T05:34:45.506Z,5.43
2023-04-22T05:36:07.699Z,5.97
2023-04-22T05:37:29.729Z,5.70
2023-04-22T05:38:51.755Z,5.73
2023-04-22T05:40:13.770Z,6.20
2023-04-22T05:41:35.949Z,6.03
2023-04-22T05:42:57.981Z,5.47
2023-04-22T05:44:20.089Z,5.60
2023-04-22T05:45:42.304Z,5.27
2023-04-22T05:47:04.408Z,5.77
2023-04-22T05:48:26.450Z,5.50
2023-04-22T05:49:48.556Z,5.70
2023-04-22T05:51:10.596Z,6.70
2023-04-22T05:52:32.712Z,5.70
2023-04-22T05:53:54.751Z,5.83
2023-04-22T05:55:16.793Z,5.67
2023-04-22T05:56:38.972Z,4.83
2023-04-22T05:58:01.050Z,5.33
2023-04-22T05:59:23.135Z,5.70
2023-04-22T06:00:46.158Z,5.40
2023-04-22T06:02:08.259Z,5.80
2023-04-22T06:03:30.523Z,4.93
2023-04-22T06:04:53.082Z,5.67
2023-04-22T06:06:15.564Z,5.90
2023-04-22T06:07:37.656Z,5.20
2023-04-22T06:08:59.751Z,5.60
2023-04-22T06:10:21.858Z,6.03
2023-04-22T06:11:43.889Z,5.80
2023-04-22T06:13:06.238Z,6.10
2023-04-22T06:14:28.445Z,5.50
2023-04-22T06:15:50.718Z,6.70
2023-04-22T06:17:12.758Z,5.63
2023-04-22T06:18:37.909Z,6.23
2023-04-22T06:20:00.570Z,6.33
2023-04-22T06:21:22.806Z,6.50
2023-04-22T06:22:44.878Z,6.00
2023-04-22T06:24:07.109Z,5.60
2023-04-22T06:25:29.282Z,5.43
2023-04-22T06:26:51.495Z,5.97
2023-04-22T06:28:13.519Z,6.60
2023-04-22T06:29:35.639Z,5.60
2023-04-22T06:30:57.790Z,6.40
2023-04-22T06:32:19.853Z,5.57
2023-04-22T06:33:41.917Z,6.17
2023-04-22T06:35:04.424Z,5.90
2023-04-22T06:36:30.238Z,6.40
2023-04-22T06:37:52.900Z,6.30
2023-04-22T06:39:14.993Z,6.10
2023-04-22T06:40:37.070Z,5.80
2023-04-22T06:41:59.116Z,5.30
2023-04-22T06:43:21.273Z,6.20
2023-04-22T06:44:43.425Z,6.27
2023-04-22T06:46:05.564Z,6.43
2023-04-22T06:47:27.661Z,6.50
2023-04-22T06:48:49.690Z,6.20
2023-04-22T06:50:11.846Z,5.70
2023-04-22T06:51:33.894Z,5.67
2023-04-22T06:52:55.912Z,5.67
2023-04-22T06:54:18.006Z,5.70
2023-04-22T06:55:40.150Z,5.70
2023-04-22T06:57:02.220Z,6.23
2023-04-22T06:58:24.216Z,6.00
2023-04-22T06:59:46.965Z,5.60
2023-04-22T07:01:09.296Z,6.07
2023-04-22T07:02:31.524Z,6.17
2023-04-22T07:03:53.747Z,6.13
2023-04-22T07:05:16.364Z,6.07
2023-04-22T07:06:38.441Z,5.87
2023-04-22T07:08:00.522Z,6.80
2023-04-22T07:09:22.613Z,7.23
2023-04-22T07:10:44.696Z,6.30
2023-04-22T07:12:07.000Z,5.50
2023-04-22T07:13:29.236Z,6.10
2023-04-22T07:14:51.338Z,6.30
2023-04-22T07:16:13.741Z,5.93
2023-04-22T07:17:35.813Z,6.10
2023-04-22T07:18:59.137Z,6.23
2023-04-22T07:20:21.408Z,5.87
2023-04-22T07:21:43.446Z,5.77
2023-04-22T07:23:05.587Z,6.47
2023-04-22T07:24:27.623Z,5.90
2023-04-22T07:25:49.664Z,6.40
2023-04-22T07:27:11.718Z,6.53
2023-04-22T07:28:33.771Z,6.70
2023-04-22T07:29:55.842Z,6.07
2023-04-22T07:31:17.926Z,6.30
2023-04-22T07:32:40.171Z,5.90
2023-04-22T07:34:02.718Z,6.00
2023-04-22T07:35:24.864Z,6.00
2023-04-22T07:36:46.933Z,6.30
2023-04-22T07:38:09.863Z,5.77
2023-04-22T07:39:32.856Z,5.67
2023-04-22T07:40:54.901Z,5.77
2023-04-22T07:42:17.049Z,5.50
2023-04-22T07:43:39.083Z,6.10
2023-04-22T07:45:01.163Z,6.00
2023-04-22T07:46:23.593Z,5.87
2023-04-22T07:47:45.694Z,6.20
2023-04-22T07:49:07.870Z,5.97
2023-04-22T07:50:29.990Z,6.37
2023-04-22T07:51:52.102Z,5.30
2023-04-22T07:53:15.772Z,5.33
2023-04-22T07:54:37.950Z,6.70
2023-04-22T07:56:02.311Z,6.00
2023-04-22T07:57:24.654Z,6.33
2023-04-22T07:58:46.729Z,6.10
2023-04-22T08:00:11.276Z,6.07
2023-04-22T08:01:33.327Z,5.80
2023-04-22T08:02:55.542Z,5.87
2023-04-22T08:04:17.966Z,6.73
2023-04-22T08:05:40.579Z,5.97
2023-04-22T08:07:17.159Z,5.80
2023-04-22T08:08:46.165Z,5.90
2023-04-22T08:10:08.874Z,5.83
2023-04-22T08:11:31.056Z,5.83
2023-04-22T08:12:53.124Z,5.80
2023-04-22T08:14:15.286Z,5.93
2023-04-22T08:15:37.390Z,6.00
2023-04-22T08:16:59.467Z,5.77
2023-04-22T08:18:21.555Z,5.37
2023-04-22T08:19:43.636Z,5.57
2023-04-22T08:21:05.805Z,5.40
2023-04-22T08:22:27.994Z,5.20
2023-04-22T08:23:50.099Z,5.97
2023-04-22T08:25:12.371Z,5.30
2023-04-22T08:26:35.717Z,5.53
2023-04-22T08:27:57.787Z,5.60
2023-04-22T08:29:19.887Z,5.20
2023-04-22T08:30:42.005Z,5.60
2023-04-22T08:32:04.106Z,5.10
2023-04-22T08:33:27.404Z,6.10
2023-04-22T08:34:51.842Z,4.70
2023-04-22T08:36:16.128Z,4.37
2023-04-22T08:37:38.310Z,5.03
2023-04-22T08:39:01.004Z,4.20
2023-04-22T08:40:23.154Z,5.60
2023-04-22T08:41:46.779Z,4.57
2023-04-22T08:43:09.591Z,5.10
2023-04-22T08:44:31.791Z,4.50
2023-04-22T08:45:53.924Z,4.60
2023-04-22T08:47:16.998Z,4.60
2023-04-22T08:48:39.958Z,4.47
2023-04-22T08:50:06.306Z,3.90
2023-04-22T08:51:28.440Z,4.13
2023-04-22T08:52:50.573Z,4.33
2023-04-22T08:54:12.786Z,3.97
2023-04-22T08:55:36.050Z,3.80
2023-04-22T08:57:00.033Z,3.50
2023-04-22T08:58:23.629Z,3.70
2023-04-22T08:59:46.201Z,4.10
2023-04-22T09:01:09.206Z,3.73
2023-04-22T09:02:33.097Z,3.87
2023-04-22T09:03:59.836Z,3.53
2023-04-22T09:05:24.365Z,3.27
2023-04-22T09:06:47.726Z,4.40
2023-04-22T09:08:11.788Z,3.50
2023-04-22T09:09:34.347Z,4.10
2023-04-22T09:10:57.685Z,4.37
2023-04-22T09:12:19.828Z,3.50
2023-04-22T09:13:42.743Z,3.80
2023-04-22T09:15:07.370Z,3.50
2023-04-22T09:16:42.893Z,3.80
2023-04-22T09:18:05.584Z,3.77
2023-04-22T09:19:27.738Z,3.80
2023-04-22T09:20:54.503Z,3.63
2023-04-22T09:22:16.762Z,3.90
2023-04-22T09:23:50.781Z,4.07
2023-04-22T09:25:19.534Z,4.43
2023-04-22T09:26:42.544Z,3.80
2023-04-22T09:28:05.040Z,3.53
2023-04-22T09:29:31.809Z,3.93
2023-04-22T09:30:53.949Z,4.40
2023-04-22T09:32:16.769Z,4.57
2023-04-22T09:33:40.087Z,4.10
2023-04-22T09:35:02.231Z,4.03
2023-04-22T09:36:33.976Z,4.17
2023-04-22T09:37:57.331Z,4.23
2023-04-22T09:39:19.431Z,4.40
2023-04-22T09:40:44.079Z,4.07
2023-04-22T09:42:06.281Z,3.90
2023-04-22T09:43:32.797Z,3.77
2023-04-22T09:44:54.916Z,4.27
2023-04-22T09:46:17.595Z,3.83
2023-04-22T09:47:39.861Z,4.67
2023-04-22T09:49:02.433Z,4.50
2023-04-22T09:50:28.997Z,5.43
2023-04-22T09:51:57.157Z,5.17
2023-04-22T09:53:20.736Z,4.27
2023-04-22T09:54:51.786Z,4.30
2023-04-22T09:56:13.872Z,4.10
2023-04-22T09:57:39.574Z,4.97
2023-04-22T09:59:01.652Z,4.13
2023-04-22T10:00:27.522Z,4.30
2023-04-22T10:01:53.391Z,4.60
2023-04-22T10:03:16.158Z,4.37
2023-04-22T10:04:38.648Z,5.13
2023-04-22T10:06:00.778Z,5.27
2023-04-22T10:07:23.001Z,5.13
2023-04-22T10:08:45.229Z,5.10
2023-04-22T10:10:08.888Z,5.47
2023-04-22T10:11:32.200Z,4.47
2023-04-22T10:12:54.684Z,4.37
2023-04-22T10:14:16.865Z,4.30
2023-04-22T10:15:53.621Z,4.60
2023-04-22T10:17:18.729Z,4.30
2023-04-22T10:18:41.411Z,4.90
2023-04-22T10:20:09.638Z,4.80
2023-04-22T10:21:33.530Z,4.97
2023-04-22T10:22:56.848Z,5.00
2023-04-22T10:24:19.886Z,4.80
2023-04-22T10:25:42.003Z,4.07
2023-04-22T10:27:08.654Z,4.30
2023-04-22T10:28:30.974Z,4.20
2023-04-22T10:29:53.127Z,3.90
2023-04-22T10:31:22.143Z,4.57
2023-04-22T10:32:44.404Z,5.40
2023-04-22T10:34:13.719Z,4.60
2023-04-22T10:35:35.772Z,4.67
2023-04-22T10:36:59.882Z,4.70
2023-04-22T10:38:22.061Z,4.30
2023-04-22T10:40:12.202Z,4.40
2023-04-22T10:41:35.509Z,4.30
2023-04-22T10:43:03.391Z,4.40
2023-04-22T10:44:29.408Z,4.20
2023-04-22T10:45:51.666Z,4.70
2023-04-22T10:47:26.147Z,4.43
2023-04-22T10:48:50.083Z,5.13
2023-04-22T10:50:13.466Z,5.20
2023-04-22T10:51:42.094Z,4.80
2023-04-22T10:53:35.942Z,4.60
2023-04-22T10:54:59.040Z,4.30
2023-04-22T10:56:21.152Z,4.40
2023-04-22T10:57:45.254Z,4.53
2023-04-22T10:59:17.328Z,4.43
2023-04-22T11:00:52.444Z,4.80
2023-04-22T11:02:16.557Z,4.87
2023-04-22T11:03:38.801Z,5.20
2023-04-22T11:05:21.900Z,5.10
2023-04-22T11:06:45.600Z,5.00
2023-04-22T11:08:13.384Z,4.90
2023-04-22T11:09:40.753Z,4.53
2023-04-22T11:11:09.215Z,4.47
2023-04-22T11:12:41.685Z,5.00
2023-04-22T11:14:04.516Z,5.23
2023-04-22T11:15:27.983Z,4.40
2023-04-22T11:16:51.982Z,4.93
2023-04-22T11:18:23.310Z,4.30
2023-04-22T11:19:47.209Z,4.90
2023-04-22T11:21:10.085Z,4.87
2023-04-22T11:22:39.778Z,5.40
2023-04-22T11:24:06.123Z,5.63
2023-04-22T11:25:28.217Z,5.03
2023-04-22T11:26:50.440Z,4.90
2023-04-22T11:28:12.547Z,4.90
2023-04-22T11:29:34.654Z,4.20
2023-04-22T11:31:07.561Z,5.73
2023-04-22T11:32:30.318Z,5.13
2023-04-22T11:33:52.478Z,5.67
2023-04-22T11:35:20.713Z,5.60
2023-04-22T11:36:45.997Z,5.00
2023-04-22T11:38:08.752Z,4.40
2023-04-22T11:39:41.809Z,4.37
2023-04-22T11:41:12.494Z,5.70
2023-04-22T11:42:38.852Z,5.00
2023-04-22T11:44:01.718Z,4.50
2023-04-22T11:45:24.427Z,4.77
2023-04-22T11:46:46.525Z,4.90
2023-04-22T11:48:10.931Z,4.30
2023-04-22T11:49:33.085Z,4.63
2023-04-22T11:51:11.193Z,5.10
2023-04-22T11:52:53.498Z,5.13
2023-04-22T11:54:15.739Z,5.10
2023-04-22T11:55:39.853Z,4.97
2023-04-22T11:57:14.106Z,5.50
2023-04-22T11:58:40.825Z,5.30
2023-04-22T12:00:03.184Z,5.40
2023-04-22T12:01:25.369Z,5.03
2023-04-22T12:03:01.950Z,4.23
2023-04-22T12:04:24.162Z,5.40
2023-04-22T12:05:57.766Z,5.30
2023-04-22T12:07:20.066Z,5.33
2023-04-22T12:08:44.360Z,5.20
2023-04-22T12:10:07.813Z,4.87
2023-04-22T12:11:29.835Z,5.10
2023-04-22T12:12:51.940Z,4.73
2023-04-22T12:14:14.066Z,4.80
2023-04-22T12:15:43.131Z,5.10
2023-04-22T12:17:08.738Z,4.93
2023-04-22T12:18:32.663Z,4.80
2023-04-22T12:19:58.491Z,5.27
2023-04-22T12:21:25.950Z,5.40
2023-04-22T12:22:48.035Z,5.50
2023-04-22T12:24:12.978Z,5.20
2023-04-22T12:25:35.070Z,5.90
2023-04-22T12:26:57.103Z,5.20
2023-04-22T12:28:19.698Z,5.10
2023-04-22T12:29:51.325Z,6.10
2023-04-22T12:31:17.187Z,5.47
2023-04-22T12:32:39.224Z,5.30
2023-04-22T12:34:02.070Z,6.10
2023-04-22T12:35:24.618Z,5.70
2023-04-22T12:36:46.725Z,5.00
2023-04-22T12:38:08.858Z,5.90
2023-04-22T12:39:32.180Z,4.97
2023-04-22T12:40:54.794Z,5.17
2023-04-22T12:42:16.895Z,5.83
2023-04-22T12:43:39.819Z,5.10
2023-04-22T12:45:02.304Z,5.00
2023-04-22T12:46:24.400Z,5.33
2023-04-22T12:47:47.042Z,4.87
2023-04-22T12:49:09.608Z,5.50
2023-04-22T12:50:31.829Z,5.27
2023-04-22T12:51:53.951Z,5.30
2023-04-22T12:53:16.666Z,5.47
2023-04-22T12:54:38.716Z,5.50
2023-04-22T12:56:00.817Z,5.50
2023-04-22T12:57:23.205Z,5.37
2023-04-22T12:58:45.351Z,5.00
2023-04-22T13:00:14.135Z,5.20
2023-04-22T13:01:36.359Z,5.20
2023-04-22T13:02:58.458Z,5.77
2023-04-22T13:04:20.976Z,4.90
2023-04-22T13:05:45.299Z,4.87
2023-04-22T13:07:07.332Z,5.60
2023-04-22T13:08:29.942Z,5.23
2023-04-22T13:09:52.086Z,5.87
2023-04-22T13:11:14.111Z,5.13
2023-04-22T13:12:38.448Z,4.80
2023-04-22T13:14:00.837Z,4.63
2023-04-22T13:15:23.052Z,5.20
2023-04-22T13:16:45.485Z,4.67
2023-04-22T13:18:07.753Z,5.17
2023-04-22T13:19:30.669Z,5.10
2023-04-22T13:20:53.608Z,5.73
2023-04-22T13:22:15.676Z,4.70
2023-04-22T13:23:37.710Z,5.53
2023-04-22T13:24:59.760Z,4.63
2023-04-22T13:26:22.352Z,4.93
2023-04-22T13:27:44.449Z,5.33
2023-04-22T13:29:13.997Z,5.10
2023-04-22T13:30:36.583Z,4.67
2023-04-22T13:31:58.803Z,5.07
2023-04-22T13:33:21.182Z,5.30
2023-04-22T13:34:45.078Z,5.00
2023-04-22T13:36:07.309Z,4.40
2023-04-22T13:37:29.374Z,4.30
2023-04-22T13:38:51.430Z,4.90
2023-04-22T13:40:13.503Z,5.30
2023-04-22T13:41:36.047Z,4.37
2023-04-22T13:42:58.791Z,4.83
2023-04-22T13:44:20.898Z,4.90
2023-04-22T13:45:43.005Z,4.63
2023-04-22T13:47:05.232Z,4.70
2023-04-22T13:48:28.040Z,4.40
2023-04-22T13:49:50.046Z,4.53
2023-04-22T13:51:12.430Z,4.83
2023-04-22T13:52:35.169Z,4.50
2023-04-22T13:53:57.282Z,5.00
2023-04-22T13:55:19.464Z,5.50
2023-04-22T13:56:41.762Z,5.37
2023-04-22T13:58:06.355Z,4.67
2023-04-22T13:59:28.510Z,5.33
2023-04-22T14:00:50.652Z,4.70
2023-04-22T14:02:12.694Z,5.20
2023-04-22T14:03:35.756Z,5.00
2023-04-22T14:04:58.842Z,5.40
2023-04-22T14:06:21.589Z,4.47
2023-04-22T14:07:43.716Z,5.07
2023-04-22T14:09:05.953Z,4.77
2023-04-22T14:10:28.855Z,4.70
2023-04-22T14:11:51.151Z,4.80
2023-04-22T14:13:13.211Z,4.80
2023-04-22T14:14:35.258Z,4.40
2023-04-22T14:15:57.816Z,4.90
2023-04-22T14:17:21.667Z,4.80
2023-04-22T14:18:45.624Z,4.73
2023-04-22T14:20:10.071Z,4.60
2023-04-22T14:21:32.153Z,5.37
2023-04-22T14:22:54.185Z,4.80
2023-04-22T14:24:16.394Z,4.00
2023-04-22T14:25:38.560Z,4.37
2023-04-22T14:27:03.398Z,4.30
2023-04-22T14:28:26.124Z,4.40
2023-04-22T14:29:52.195Z,4.80
2023-04-22T14:31:15.117Z,5.00
2023-04-22T14:32:37.397Z,4.90
2023-04-22T14:33:59.511Z,4.60
2023-04-22T14:35:21.878Z,4.80
2023-04-22T14:36:44.144Z,5.43
2023-04-22T14:38:08.454Z,4.63
2023-04-22T14:39:30.537Z,3.87
2023-04-22T14:40:53.099Z,4.17
2023-04-22T14:42:17.618Z,3.97
2023-04-22T14:43:39.717Z,4.20
2023-04-22T14:45:02.018Z,3.97
2023-04-22T14:46:24.135Z,3.50
2023-04-22T14:47:46.322Z,3.67
2023-04-22T14:49:08.533Z,3.67
2023-04-22T14:50:30.659Z,3.80
2023-04-22T14:51:52.764Z,4.17
2023-04-22T14:53:14.986Z,3.70
2023-04-22T14:54:37.042Z,3.80
2023-04-22T14:55:59.076Z,3.73
2023-04-22T14:57:21.318Z,3.83
2023-04-22T14:58:43.616Z,3.97
2023-04-22T15:00:07.982Z,4.07
2023-04-22T15:01:31.146Z,4.30
2023-04-22T15:02:54.953Z,4.30
2023-04-22T15:04:19.136Z,3.63
2023-04-22T15:05:41.333Z,4.47
2023-04-22T15:07:03.894Z,3.60
2023-04-22T15:08:27.010Z,3.77
2023-04-22T15:09:49.107Z,4.00
2023-04-22T15:11:11.142Z,4.37
2023-04-22T15:12:33.212Z,3.60
2023-04-22T15:13:55.232Z,4.10
2023-04-22T15:15:18.304Z,3.70
2023-04-22T15:16:40.611Z,3.73
2023-04-22T15:18:02.854Z,3.87
2023-04-22T15:19:24.886Z,3.90
2023-04-22T15:20:47.058Z,3.40
2023-04-22T15:22:09.187Z,3.80
2023-04-22T15:23:31.297Z,3.80
2023-04-22T15:24:53.403Z,3.40
2023-04-22T15:26:15.461Z,3.70
2023-04-22T15:27:38.451Z,3.23
2023-04-22T15:29:01.173Z,3.60
2023-04-22T15:30:24.259Z,3.60
2023-04-22T15:31:47.045Z,4.00
2023-04-22T15:33:09.383Z,3.90
2023-04-22T15:34:31.669Z,4.17
2023-04-22T15:35:53.820Z,3.33
2023-04-22T15:37:16.257Z,3.50
2023-04-22T15:38:39.115Z,3.70
2023-04-22T15:40:01.354Z,3.50
2023-04-22T15:41:24.417Z,3.40
2023-04-22T15:42:46.522Z,3.83
2023-04-22T15:44:11.109Z,3.47
2023-04-22T15:45:35.718Z,2.90
2023-04-22T15:46:59.600Z,3.47
2023-04-22T15:48:21.718Z,3.77
2023-04-22T15:49:43.858Z,3.27
2023-04-22T15:51:06.046Z,3.47
2023-04-22T15:52:28.061Z,3.40
2023-04-22T15:53:50.145Z,3.40
2023-04-22T15:55:12.374Z,3.10
2023-04-22T15:56:35.498Z,3.33
2023-04-22T15:57:57.551Z,4.00
2023-04-22T15:59:19.561Z,3.60
2023-04-22T16:00:41.678Z,3.10
2023-04-22T16:02:04.272Z,3.23
2023-04-22T16:03:26.676Z,3.30
2023-04-22T16:04:48.985Z,3.17
2023-04-22T16:06:11.080Z,3.13
2023-04-22T16:07:33.174Z,3.60
2023-04-22T16:08:55.571Z,3.07
2023-04-22T16:10:17.655Z,3.00
2023-04-22T16:11:39.732Z,3.60
2023-04-22T16:13:01.797Z,3.80
2023-04-22T16:14:23.784Z,3.23
2023-04-22T16:15:46.123Z,3.20
2023-04-22T16:17:08.562Z,3.73
2023-04-22T16:18:30.925Z,3.20
2023-04-22T16:19:53.012Z,3.13
2023-04-22T16:21:15.565Z,3.20
2023-04-22T16:22:37.717Z,3.10
2023-04-22T16:24:00.765Z,3.20
2023-04-22T16:25:23.115Z,3.23
2023-04-22T16:26:45.199Z,2.97
2023-04-22T16:28:07.337Z,3.73
2023-04-22T16:29:29.359Z,3.30
2023-04-22T16:30:51.466Z,3.10
2023-04-22T16:32:13.653Z,3.27
2023-04-22T16:33:36.750Z,3.30
2023-04-22T16:34:58.882Z,3.00
2023-04-22T16:36:21.461Z,3.37
2023-04-22T16:37:43.886Z,3.00
2023-04-22T16:39:06.862Z,2.90
2023-04-22T16:40:28.979Z,4.10
2023-04-22T16:41:51.003Z,3.70
2023-04-22T16:43:13.140Z,3.00
2023-04-22T16:44:35.284Z,2.97
2023-04-22T16:45:57.330Z,3.20
2023-04-22T16:47:19.823Z,3.20
2023-04-22T16:48:41.937Z,3.07
2023-04-22T16:50:04.434Z,2.70
2023-04-22T16:51:26.544Z,2.83
2023-04-22T16:52:48.579Z,3.40
2023-04-22T16:54:10.653Z,3.30
2023-04-22T16:55:33.643Z,3.57
2023-04-22T16:56:57.606Z,3.07
2023-04-22T16:58:19.640Z,3.50
2023-04-22T16:59:42.037Z,2.93
2023-04-22T17:01:04.384Z,3.30
2023-04-22T17:02:26.641Z,3.17
2023-04-22T17:03:49.256Z,2.60
2023-04-22T17:05:11.475Z,3.20
2023-04-22T17:06:33.512Z,3.53
2023-04-22T17:07:55.614Z,3.00
2023-04-22T17:09:17.734Z,3.33
2023-04-22T17:10:45.305Z,3.43
2023-04-22T17:12:07.371Z,2.97
2023-04-22T17:13:29.466Z,3.40
2023-04-22T17:14:51.554Z,3.03
2023-04-22T17:16:13.756Z,3.50
2023-04-22T17:17:35.933Z,3.25
2023-04-22T17:18:58.037Z,2.90
2023-04-22T17:20:20.109Z,3.10
2023-04-22T17:21:42.750Z,2.70
2023-04-22T17:23:04.945Z,3.33
2023-04-22T17:24:27.053Z,3.00
2023-04-22T17:25:49.356Z,3.53
2023-04-22T17:27:14.945Z,3.13
2023-04-22T17:28:37.117Z,3.07
2023-04-22T17:29:59.227Z,2.90
2023-04-22T17:31:22.236Z,3.20
2023-04-22T17:32:44.498Z,2.63
2023-04-22T17:34:06.621Z,3.20
2023-04-22T17:35:28.876Z,3.37
2023-04-22T17:36:50.998Z,2.90
2023-04-22T17:38:14.085Z,3.47
2023-04-22T17:39:36.543Z,3.40
2023-04-22T17:40:59.022Z,3.13
2023-04-22T17:42:21.493Z,3.03
2023-04-22T17:43:43.642Z,3.27
2023-04-22T17:45:06.243Z,3.53
2023-04-22T17:46:28.379Z,3.77
2023-04-22T17:47:50.568Z,3.27
2023-04-22T17:49:12.761Z,3.57
2023-04-22T17:50:34.884Z,4.03
2023-04-22T17:51:57.037Z,3.40
2023-04-22T17:53:19.166Z,3.47
2023-04-22T17:54:41.565Z,3.80
2023-04-22T17:56:03.612Z,3.10
2023-04-22T17:57:25.816Z,3.13
2023-04-22T17:58:47.924Z,3.20
2023-04-22T18:00:10.705Z,3.10
2023-04-22T18:01:32.802Z,3.60
2023-04-22T18:02:55.775Z,3.00
2023-04-22T18:04:18.054Z,3.20
2023-04-22T18:05:43.215Z,3.10
2023-04-22T18:07:05.517Z,3.40
2023-04-22T18:08:27.561Z,3.30
2023-04-22T18:09:49.735Z,3.03
2023-04-22T18:11:12.000Z,3.07
2023-04-22T18:12:34.139Z,3.50
2023-04-22T18:13:56.290Z,3.27
2023-04-22T18:15:19.994Z,3.53
2023-04-22T18:16:42.113Z,3.57
2023-04-22T18:18:04.480Z,3.50
2023-04-22T18:19:26.628Z,3.40
2023-04-22T18:20:48.744Z,3.40
2023-04-22T18:22:10.893Z,3.00
2023-04-22T18:23:35.039Z,3.77
2023-04-22T18:24:58.751Z,3.30
2023-04-22T18:26:21.021Z,3.00